createdAt,value
2022-10-06T00:01:45.931Z,98766.50
2022-10-06T00:06:48.362Z,98766.47
2022-10-06T00:11:50.759Z,98772.81
2022-10-06T00:16:53.109Z,98779.38
2022-10-06T00:21:55.476Z,98778.63
2022-10-06T00:26:57.906Z,98777.38
2022-10-06T00:32:00.232Z,98784.25
2022-10-06T00:37:03.333Z,98788.34
2022-10-06T00:42:06.000Z,98806.00
2022-10-06T00:47:08.933Z,98804.84
2022-10-06T00:52:15.090Z,98809.56
2022-10-06T00:57:18.777Z,98820.31
2022-10-06T01:02:23.796Z,98819.00
2022-10-06T01:07:29.603Z,98823.19
2022-10-06T01:12:33.751Z,98822.22
2022-10-06T01:17:55.276Z,98831.00
2022-10-06T01:23:05.742Z,98826.47
2022-10-06T01:28:10.729Z,98833.22
2022-10-06T01:33:13.303Z,98841.03
2022-10-06T01:38:17.692Z,98835.13
2022-10-06T01:43:22.641Z,98843.09
2022-10-06T01:48:28.413Z,98851.69
2022-10-06T01:53:33.750Z,98859.03
2022-10-06T01:58:36.343Z,98863.53
2022-10-06T02:03:40.077Z,98864.94
2022-10-06T02:08:44.521Z,98877.47
2022-10-06T02:13:47.957Z,98858.63
2022-10-06T02:18:50.568Z,98868.56
2022-10-06T02:23:54.986Z,98873.28
2022-10-06T02:28:57.384Z,98890.19
2022-10-06T02:34:00.453Z,98888.00
2022-10-06T02:39:03.144Z,98905.06
2022-10-06T02:44:06.076Z,98912.63
2022-10-06T02:49:08.593Z,98923.22
2022-10-06T02:54:12.467Z,98923.31
2022-10-06T02:59:15.404Z,98925.84
2022-10-06T03:04:19.294Z,98930.09
2022-10-06T03:09:21.975Z,98945.81
2022-10-06T03:14:25.212Z,98949.38
2022-10-06T03:19:27.735Z,98965.97
2022-10-06T03:24:30.499Z,98971.13
2022-10-06T03:29:35.120Z,98993.81
2022-10-06T03:34:38.728Z,98992.03
2022-10-06T03:39:44.370Z,98993.66
2022-10-06T03:44:47.619Z,99004.38
2022-10-06T03:49:50.148Z,99016.81
2022-10-06T03:54:52.705Z,99024.94
2022-10-06T03:59:59.222Z,99042.00
2022-10-06T04:05:01.787Z,99045.97
2022-10-06T04:10:05.749Z,99051.28
2022-10-06T04:15:08.791Z,99043.41
2022-10-06T04:20:11.835Z,99047.19
2022-10-06T04:25:14.355Z,99063.28
2022-10-06T04:30:17.178Z,99060.44
2022-10-06T04:35:20.537Z,99077.72
2022-10-06T04:40:23.188Z,99076.38
2022-10-06T04:45:26.129Z,99076.03
2022-10-06T04:50:28.598Z,99071.63
2022-10-06T04:55:43.492Z,99080.09
2022-10-06T05:00:49.308Z,99085.00
2022-10-06T05:05:52.660Z,99088.50
2022-10-06T05:11:07.251Z,99109.25
2022-10-06T05:16:13.530Z,99115.94
2022-10-06T05:21:21.111Z,99110.63
2022-10-06T05:26:27.042Z,99122.72
2022-10-06T05:31:35.255Z,99122.34
2022-10-06T05:36:40.319Z,99125.59
2022-10-06T05:41:45.276Z,99140.75
2022-10-06T05:46:49.293Z,99141.44
2022-10-06T05:51:53.221Z,99147.22
2022-10-06T05:57:02.148Z,99164.97
2022-10-06T06:02:08.919Z,99163.53
2022-10-06T06:07:17.710Z,99164.00
2022-10-06T06:12:21.693Z,99188.03
2022-10-06T06:17:30.711Z,99187.94
2022-10-06T06:22:35.447Z,99195.66
2022-10-06T06:27:42.155Z,99192.13
2022-10-06T06:32:45.040Z,99201.09
2022-10-06T06:37:48.871Z,99212.63
2022-10-06T06:42:53.826Z,99223.84
2022-10-06T06:48:16.668Z,99226.50
2022-10-06T06:53:20.780Z,99239.63
2022-10-06T06:58:23.775Z,99243.84
2022-10-06T07:03:55.579Z,99256.16
2022-10-06T07:08:51.237Z,99278.13
2022-10-06T07:13:56.255Z,99274.13
2022-10-06T07:19:21.307Z,99281.00
2022-10-06T07:24:46.143Z,99287.75
2022-10-06T07:29:54.472Z,99290.00
2022-10-06T07:34:58.787Z,99292.78
2022-10-06T07:40:03.867Z,99302.56
2022-10-06T07:45:25.440Z,99306.53
2022-10-06T07:50:29.105Z,99300.81
2022-10-06T07:55:32.757Z,99312.09
2022-10-06T08:00:53.149Z,99319.88
2022-10-06T08:06:00.362Z,99312.75
2022-10-06T08:11:04.533Z,99331.47
2022-10-06T08:16:18.383Z,99334.75
2022-10-06T08:21:34.649Z,99336.31
2022-10-06T08:26:37.261Z,99342.25
2022-10-06T08:31:39.662Z,99360.53
2022-10-06T08:37:02.222Z,99367.78
2022-10-06T08:42:09.442Z,99363.06
2022-10-06T08:47:22.719Z,99368.56
2022-10-06T08:53:06.661Z,99367.25
2022-10-06T08:58:23.346Z,99377.72
2022-10-06T09:03:31.487Z,99378.72
2022-10-06T09:08:36.790Z,99385.22
2022-10-06T09:13:46.000Z,99382.56
2022-10-06T09:19:08.221Z,99388.50
2022-10-06T09:24:25.470Z,99394.66
2022-10-06T09:29:31.293Z,99396.69
2022-10-06T09:34:45.687Z,99406.34
2022-10-06T09:39:51.090Z,99395.28
2022-10-06T09:45:10.936Z,99400.97
2022-10-06T09:50:20.070Z,99410.31
2022-10-06T09:55:29.063Z,99416.09
2022-10-06T10:00:46.478Z,99413.66
2022-10-06T10:05:51.730Z,99418.91
2022-10-06T10:11:42.290Z,99413.66
2022-10-06T10:16:49.665Z,99414.72
2022-10-06T10:21:57.706Z,99408.38
2022-10-06T10:27:09.257Z,99411.75
2022-10-06T10:32:43.057Z,99410.31
2022-10-06T10:38:24.781Z,99406.09
2022-10-06T10:43:37.369Z,99415.50
2022-10-06T10:48:54.776Z,99401.78
2022-10-06T10:54:03.757Z,99399.94
2022-10-06T10:59:36.078Z,99395.91
2022-10-06T11:04:43.467Z,99392.00
2022-10-06T11:10:00.913Z,99388.44
2022-10-06T11:15:06.576Z,99393.66
2022-10-06T11:20:21.465Z,99388.78
2022-10-06T11:25:36.950Z,99397.81
2022-10-06T11:30:50.735Z,99396.75
2022-10-06T11:35:53.340Z,99395.69
2022-10-06T11:41:32.040Z,99376.28
2022-10-06T11:46:45.052Z,99381.09
2022-10-06T11:51:47.835Z,99379.03
2022-10-06T11:56:50.290Z,99368.59
2022-10-06T12:01:54.847Z,99369.19
2022-10-06T12:06:59.282Z,99369.22
2022-10-06T12:12:15.011Z,99367.66
2022-10-06T12:17:48.589Z,99366.59
2022-10-06T12:22:59.921Z,99363.31
2022-10-06T12:28:06.150Z,99357.22
2022-10-06T12:33:20.713Z,99353.84
2022-10-06T12:38:33.151Z,99357.06
2022-10-06T12:44:05.537Z,99358.72
2022-10-06T12:49:22.134Z,99355.34
2022-10-06T12:54:42.597Z,99350.28
2022-10-06T12:59:45.172Z,99353.44
2022-10-06T13:05:00.281Z,99343.47
2022-10-06T13:10:18.406Z,99336.56
2022-10-06T13:20:58.737Z,99335.06
2022-10-06T13:26:41.079Z,99344.63
2022-10-06T13:31:51.901Z,99341.53
2022-10-06T13:36:56.105Z,99340.59
2022-10-06T13:42:10.516Z,99338.44
2022-10-06T13:47:21.463Z,99341.28
2022-10-06T13:52:29.004Z,99329.44
2022-10-06T13:57:48.187Z,99333.50
2022-10-06T14:02:55.214Z,99329.47
2022-10-06T14:08:03.981Z,99336.63
2022-10-06T14:13:29.281Z,99324.94
2022-10-06T14:18:47.286Z,99325.13
2022-10-06T14:23:56.196Z,99328.19
2022-10-06T14:28:59.065Z,99326.75
2022-10-06T14:34:02.708Z,99316.03
2022-10-06T14:39:11.043Z,99314.34
2022-10-06T14:44:15.664Z,99306.81
2022-10-06T14:49:18.263Z,99305.91
2022-10-06T14:54:21.722Z,99311.09
2022-10-06T14:59:24.891Z,99308.94
2022-10-06T15:04:28.330Z,99308.94
2022-10-06T15:09:31.398Z,99306.16
2022-10-06T15:14:39.419Z,99295.72
2022-10-06T15:19:42.119Z,99302.13
2022-10-06T15:24:48.783Z,99290.69
2022-10-06T15:29:51.255Z,99293.69
2022-10-06T15:34:55.226Z,99288.47
2022-10-06T15:39:58.166Z,99288.81
2022-10-06T15:45:05.127Z,99288.31
2022-10-06T15:50:11.372Z,99281.06
2022-10-06T15:55:15.436Z,99275.78
2022-10-06T16:00:17.875Z,99280.59
2022-10-06T16:05:49.473Z,99283.78
2022-10-06T16:10:51.947Z,99282.53
2022-10-06T16:15:56.229Z,99279.03
2022-10-06T16:20:58.739Z,99282.97
2022-10-06T16:26:04.810Z,99288.97
2022-10-06T16:31:07.395Z,99285.22
2022-10-06T16:36:10.887Z,99288.25
2022-10-06T16:41:13.292Z,99288.47
2022-10-06T16:46:19.238Z,99286.94
2022-10-06T16:51:26.888Z,99299.06
2022-10-06T16:56:53.826Z,99295.66
2022-10-06T17:01:56.311Z,99296.88
2022-10-06T17:06:58.720Z,99298.53
2022-10-06T17:12:03.174Z,99298.53
2022-10-06T17:17:05.862Z,99298.47
2022-10-06T17:22:08.331Z,99297.31
2022-10-06T17:27:10.671Z,99310.72
2022-10-06T17:32:15.227Z,99310.84
2022-10-06T17:37:17.672Z,99316.34
2022-10-06T17:42:20.026Z,99308.84
2022-10-06T17:47:22.415Z,99316.25
2022-10-06T17:52:24.899Z,99311.63
2022-10-06T17:57:30.454Z,99314.47
2022-10-06T18:02:33.287Z,99310.00
2022-10-06T18:07:38.118Z,99302.19
2022-10-06T18:12:40.800Z,99313.94
2022-10-06T18:17:43.360Z,99312.63
2022-10-06T18:22:45.737Z,99297.91
2022-10-06T18:27:48.110Z,99310.19
2022-10-06T18:38:12.852Z,99304.53
2022-10-06T18:43:15.242Z,99306.38
2022-10-06T18:48:36.494Z,99300.50
2022-10-06T18:53:39.126Z,99299.03
2022-10-06T18:58:41.832Z,99306.94
2022-10-06T19:03:44.256Z,99301.56
2022-10-06T19:08:50.634Z,99295.03
2022-10-06T19:13:53.907Z,99303.22
2022-10-06T19:18:56.339Z,99300.38
2022-10-06T19:24:01.782Z,99302.88
2022-10-06T19:29:06.664Z,99304.91
2022-10-06T19:34:11.880Z,99296.16
2022-10-06T19:39:14.261Z,99305.41
2022-10-06T19:44:17.149Z,99305.75
2022-10-06T19:49:19.646Z,99316.91
2022-10-06T19:54:22.549Z,99311.84
2022-10-06T19:59:25.370Z,99310.91
2022-10-06T20:04:27.804Z,99305.28
2022-10-06T20:09:34.078Z,99297.00
2022-10-06T20:14:36.824Z,99294.94
2022-10-06T20:19:40.141Z,99303.47
2022-10-06T20:24:42.561Z,99300.59
2022-10-06T20:29:44.969Z,99304.91
2022-10-06T20:34:47.341Z,99300.63
2022-10-06T20:40:08.188Z,99296.31
2022-10-06T20:45:12.144Z,99293.81
2022-10-06T20:50:14.745Z,99288.78
2022-10-06T20:55:17.365Z,99286.47
2022-10-06T21:00:21.952Z,99291.53
2022-10-06T21:05:24.305Z,99294.44
2022-10-06T21:10:26.708Z,99288.19
2022-10-06T21:15:29.112Z,99291.25
2022-10-06T21:20:31.466Z,99284.31
2022-10-06T21:25:37.910Z,99280.88
2022-10-06T21:30:41.098Z,99281.72
2022-10-06T21:35:43.451Z,99276.28
2022-10-06T21:40:45.878Z,99270.59
2022-10-06T21:45:57.027Z,99260.63
2022-10-06T21:51:11.662Z,99259.09
2022-10-06T21:56:14.109Z,99255.91
2022-10-06T22:01:16.523Z,99254.78
2022-10-06T22:06:20.109Z,99235.94
2022-10-06T22:11:25.556Z,99242.91
2022-10-06T22:16:32.555Z,99234.91
2022-10-06T22:21:37.359Z,99235.31
2022-10-06T22:26:41.870Z,99219.81
2022-10-06T22:31:46.381Z,99227.06
2022-10-06T22:36:48.829Z,99229.03
2022-10-06T22:41:51.131Z,99228.09
2022-10-06T22:46:53.607Z,99220.91
2022-10-06T22:51:55.966Z,99218.72
2022-10-06T22:56:58.421Z,99201.88
2022-10-06T23:02:00.789Z,99203.44
2022-10-06T23:07:03.240Z,99192.41
2022-10-06T23:12:05.857Z,99192.22
2022-10-06T23:17:08.221Z,99174.56
2022-10-06T23:22:10.537Z,99170.97
2022-10-06T23:27:14.316Z,99174.38
2022-10-06T23:32:16.930Z,99161.78
2022-10-06T23:37:19.377Z,99160.94
2022-10-06T23:42:21.718Z,99160.19
2022-10-06T23:47:24.146Z,99162.56
2022-10-06T23:52:26.477Z,99150.59
2022-10-06T23:57:28.795Z,99156.88
